Time;durP1;ratioP1;P1;durP2;ratioP2;P2;SDS_P1;SDS_P2;PMS_P1;PMS_P2;Temp;Humidity;BMP_temperature;BMP_pressure;BME280_temperature;BME280_humidity;BME280_pressure;Samples;Min_cycle;Max_cycle;Signal;HPM_P1;HPM_P2
2024/01/22 00:00:25;;;;;;;9.53;4.77;;;-4.30;99.90;;;;;;4969774;28;20035;-84
2024/01/22 00:02:50;;;;;;;8.70;5.10;;;-4.30;99.90;;;;;;4969056;28;20040;-83
2024/01/22 00:05:16;;;;;;;7.20;4.10;;;-4.40;99.90;;;;;;4968574;28;20763;-84
2024/01/22 00:07:42;;;;;;;6.53;4.10;;;-4.30;99.90;;;;;;4968212;28;20037;-83
2024/01/22 00:10:08;;;;;;;8.23;4.13;;;-4.40;99.90;;;;;;4969215;28;20027;-84
2024/01/22 00:12:34;;;;;;;7.43;4.00;;;-4.40;99.90;;;;;;4968666;28;20052;-84
2024/01/22 00:15:00;;;;;;;7.03;3.70;;;-4.40;99.90;;;;;;4968885;28;20023;-84
2024/01/22 00:17:25;;;;;;;6.90;3.80;;;-4.30;99.90;;;;;;4968831;28;20138;-83
2024/01/22 00:19:51;;;;;;;8.20;3.83;;;-4.30;99.90;;;;;;4952709;28;20052;-84
2024/01/22 00:22:16;;;;;;;5.43;3.60;;;-4.30;99.90;;;;;;4969015;28;20056;-83
2024/01/22 00:24:43;;;;;;;5.50;3.70;;;-4.30;99.90;;;;;;4968177;28;20058;-84
2024/01/22 00:27:08;;;;;;;8.37;4.20;;;-4.30;99.90;;;;;;4968871;28;20045;-84
2024/01/22 00:29:34;;;;;;;6.50;3.70;;;-4.30;99.90;;;;;;4968911;28;20098;-83
2024/01/22 00:31:59;;;;;;;6.93;4.10;;;-4.20;99.90;;;;;;4973526;28;20854;-83
2024/01/22 00:34:25;;;;;;;5.97;3.40;;;-4.20;99.90;;;;;;4970518;28;20031;-84
2024/01/22 00:36:50;;;;;;;6.33;3.57;;;-4.20;99.90;;;;;;4972833;28;20045;-83
2024/01/22 00:39:16;;;;;;;6.30;3.60;;;-4.20;99.90;;;;;;4969119;28;20046;-84
2024/01/22 00:41:41;;;;;;;6.73;3.50;;;-4.20;99.90;;;;;;4971500;28;20633;-84
2024/01/22 00:44:07;;;;;;;8.67;3.43;;;-4.20;99.90;;;;;;4966991;28;20043;-84
2024/01/22 00:46:32;;;;;;;6.27;3.27;;;-4.20;99.90;;;;;;4967490;28;20043;-84
2024/01/22 00:48:58;;;;;;;5.83;3.50;;;-4.30;99.90;;;;;;4966894;28;20045;-84
2024/01/22 00:51:23;;;;;;;5.40;2.63;;;-4.30;99.90;;;;;;4968194;28;20039;-84
2024/01/22 00:53:49;;;;;;;6.07;3.10;;;-4.30;99.90;;;;;;4967549;28;20387;-83
2024/01/22 00:56:15;;;;;;;6.90;3.30;;;-4.40;99.90;;;;;;4968124;28;20041;-83
2024/01/22 00:58:40;;;;;;;4.60;3.00;;;-4.40;99.90;;;;;;4967413;28;20054;-84
2024/01/22 01:01:08;;;;;;;6.10;3.03;;;-4.40;99.90;;;;;;4951713;28;20031;-83
2024/01/22 01:03:34;;;;;;;5.50;3.10;;;-4.50;99.90;;;;;;4966885;28;20165;-83
2024/01/22 01:05:59;;;;;;;7.13;3.00;;;-4.50;99.90;;;;;;4967648;28;20486;-83
2024/01/22 01:08:26;;;;;;;5.77;2.97;;;-4.50;99.90;;;;;;4968403;28;20114;-84
2024/01/22 01:10:51;;;;;;;4.30;2.83;;;-4.50;99.90;;;;;;4969946;28;20091;-84
2024/01/22 01:13:18;;;;;;;6.23;3.37;;;-4.60;99.90;;;;;;4970492;28;21386;-84
2024/01/22 01:15:44;;;;;;;7.57;3.47;;;-4.60;99.90;;;;;;4968728;28;20027;-83
2024/01/22 01:18:10;;;;;;;5.77;3.20;;;-4.60;99.90;;;;;;4967133;28;20100;-83
2024/01/22 01:20:37;;;;;;;6.17;3.40;;;-4.70;99.90;;;;;;4965407;28;20058;-83
2024/01/22 01:23:03;;;;;;;5.77;3.17;;;-4.70;99.90;;;;;;4968247;28;20041;-84
2024/01/22 01:25:28;;;;;;;5.70;3.47;;;-4.70;99.90;;;;;;4967076;28;20031;-83
2024/01/22 01:27:54;;;;;;;8.27;3.17;;;-4.70;99.90;;;;;;4966386;28;20121;-84
2024/01/22 01:30:20;;;;;;;4.83;3.00;;;-4.70;99.90;;;;;;4967311;28;20035;-84
2024/01/22 01:32:45;;;;;;;6.93;2.63;;;-4.70;99.90;;;;;;4968743;28;21366;-84
2024/01/22 01:35:11;;;;;;;4.40;2.63;;;-4.70;99.90;;;;;;4967949;28;20066;-83
2024/01/22 01:37:36;;;;;;;5.33;3.10;;;-4.70;99.90;;;;;;4969343;28;20050;-84
2024/01/22 01:40:02;;;;;;;7.07;3.07;;;-4.70;99.90;;;;;;4969088;28;20035;-84
2024/01/22 01:42:27;;;;;;;4.67;2.73;;;-4.70;99.90;;;;;;4967966;28;20133;-84
2024/01/22 01:44:54;;;;;;;5.33;3.30;;;-4.60;99.90;;;;;;4968066;28;20486;-84
2024/01/22 01:47:20;;;;;;;5.93;3.10;;;-4.70;99.90;;;;;;4968101;28;20043;-84
2024/01/22 01:49:47;;;;;;;5.63;2.70;;;-4.60;99.90;;;;;;4967507;28;20074;-83
2024/01/22 01:52:13;;;;;;;6.27;3.57;;;-4.70;99.90;;;;;;4967725;28;20034;-84
2024/01/22 01:54:40;;;;;;;5.70;3.00;;;-4.70;99.90;;;;;;4967855;28;20052;-83
2024/01/22 01:57:06;;;;;;;6.13;3.40;;;-4.70;99.90;;;;;;4968315;28;20027;-84
2024/01/22 01:59:34;;;;;;;5.87;3.43;;;-4.70;99.90;;;;;;4969166;28;20035;-83
2024/01/22 02:01:59;;;;;;;4.97;2.97;;;-4.80;99.90;;;;;;4968923;28;20031;-83
2024/01/22 02:04:25;;;;;;;6.63;3.47;;;-4.80;99.90;;;;;;4967611;28;20486;-83
2024/01/22 02:06:51;;;;;;;10.53;3.27;;;-4.80;99.90;;;;;;4970512;28;20036;-84
2024/01/22 02:09:16;;;;;;;5.97;3.37;;;-4.80;99.90;;;;;;4967821;28;20038;-84
2024/01/22 02:11:42;;;;;;;4.53;2.60;;;-4.80;99.90;;;;;;4967662;28;20042;-84
2024/01/22 02:14:07;;;;;;;5.13;2.90;;;-4.80;99.90;;;;;;4967900;28;20740;-84
2024/01/22 02:16:33;;;;;;;4.27;2.57;;;-4.80;99.90;;;;;;4969155;28;20027;-84
2024/01/22 02:18:58;;;;;;;4.77;2.83;;;-4.70;99.90;;;;;;4968961;28;20074;-83
2024/01/22 02:21:24;;;;;;;5.23;2.80;;;-4.70;99.90;;;;;;4968995;28;20045;-83
2024/01/22 02:23:49;;;;;;;5.47;2.80;;;-4.70;99.90;;;;;;4968947;28;20034;-85
2024/01/22 02:26:15;;;;;;;4.37;2.57;;;-4.70;99.90;;;;;;4968371;28;20054;-83
2024/01/22 02:28:40;;;;;;;6.47;3.00;;;-4.70;99.90;;;;;;4970150;28;20035;-84
2024/01/22 02:31:08;;;;;;;5.13;2.40;;;-4.70;99.90;;;;;;4969684;28;20038;-83
2024/01/22 02:33:34;;;;;;;6.13;2.33;;;-4.70;99.90;;;;;;4969892;28;20041;-84
2024/01/22 02:35:59;;;;;;;5.17;2.47;;;-4.70;99.90;;;;;;4969412;28;20031;-84
2024/01/22 02:38:25;;;;;;;5.73;2.97;;;-4.70;99.90;;;;;;4969070;28;20121;-84
2024/01/22 02:40:51;;;;;;;6.60;3.03;;;-4.70;99.90;;;;;;4965793;28;20034;-84
2024/01/22 02:43:17;;;;;;;4.57;2.43;;;-4.60;99.90;;;;;;4969532;28;20027;-84
2024/01/22 02:45:43;;;;;;;5.00;2.80;;;-4.60;99.90;;;;;;4967998;28;20035;-84
2024/01/22 02:48:08;;;;;;;5.43;2.40;;;-4.60;99.90;;;;;;4969406;28;20123;-84
2024/01/22 02:50:34;;;;;;;5.57;2.60;;;-4.60;99.90;;;;;;4969287;28;20098;-83
2024/01/22 02:52:59;;;;;;;4.17;1.93;;;-4.60;99.90;;;;;;4970752;28;20517;-84
2024/01/22 02:55:25;;;;;;;5.97;3.30;;;-4.60;99.90;;;;;;4968423;28;20098;-84
2024/01/22 02:57:50;;;;;;;3.63;2.10;;;-4.60;99.90;;;;;;4968868;28;20022;-84
2024/01/22 03:00:16;;;;;;;3.57;2.20;;;-4.60;99.90;;;;;;4968457;28;20046;-84
2024/01/22 03:02:42;;;;;;;3.23;2.10;;;-4.60;99.90;;;;;;4968378;28;20035;-84
2024/01/22 03:05:07;;;;;;;5.37;2.27;;;-4.60;99.90;;;;;;4968257;28;20678;-84
2024/01/22 03:07:33;;;;;;;4.33;2.43;;;-4.50;99.90;;;;;;4968140;28;20413;-84
2024/01/22 03:09:59;;;;;;;3.83;1.67;;;-4.50;99.90;;;;;;4951088;28;20034;-84
2024/01/22 03:12:24;;;;;;;4.23;2.30;;;-4.40;99.90;;;;;;4969626;28;20027;-84
2024/01/22 03:14:50;;;;;;;3.33;1.87;;;-4.30;99.90;;;;;;4969669;28;20113;-83
2024/01/22 03:17:15;;;;;;;3.63;2.13;;;-4.40;99.90;;;;;;4972199;28;20130;-83
2024/01/22 03:19:41;;;;;;;3.50;2.07;;;-4.30;99.90;;;;;;4971373;28;20062;-84
2024/01/22 03:22:06;;;;;;;5.07;2.17;;;-4.40;99.90;;;;;;4971864;28;20023;-84
2024/01/22 03:24:32;;;;;;;2.13;1.40;;;-4.30;99.90;;;;;;4972647;28;20054;-84
2024/01/22 03:26:57;;;;;;;2.90;1.73;;;-4.20;99.90;;;;;;4970834;28;20047;-84
2024/01/22 03:29:23;;;;;;;4.07;2.63;;;-4.10;99.90;;;;;;4971797;28;20035;-84
2024/01/22 03:31:48;;;;;;;3.77;1.90;;;-4.00;99.90;;;;;;4972171;28;20097;-83
2024/01/22 03:34:14;;;;;;;3.50;1.80;;;-4.00;99.90;;;;;;4972972;28;20405;-84
2024/01/22 03:36:39;;;;;;;4.63;2.70;;;-3.90;99.90;;;;;;4972500;28;20031;-84
2024/01/22 03:39:05;;;;;;;4.77;1.93;;;-3.90;99.90;;;;;;4971627;28;20049;-84
2024/01/22 03:41:32;;;;;;;3.53;1.93;;;-3.80;99.90;;;;;;4970868;28;20545;-84
2024/01/22 03:43:57;;;;;;;3.20;1.87;;;-3.70;99.90;;;;;;4971773;28;20090;-84
2024/01/22 03:46:23;;;;;;;3.00;1.80;;;-3.70;99.90;;;;;;4971217;28;20428;-84
2024/01/22 03:48:48;;;;;;;2.53;1.57;;;-3.60;99.90;;;;;;4953828;28;20881;-84
2024/01/22 03:51:14;;;;;;;2.83;1.90;;;-3.50;99.90;;;;;;4969792;28;20093;-84
2024/01/22 03:53:39;;;;;;;3.20;1.60;;;-3.40;99.90;;;;;;4973027;28;20054;-83
2024/01/22 03:56:05;;;;;;;2.73;1.30;;;-3.30;99.90;;;;;;4973616;28;20117;-83
2024/01/22 03:58:33;;;;;;;2.43;1.37;;;-3.20;99.90;;;;;;4972726;28;20110;-83
2024/01/22 04:00:59;;;;;;;4.30;1.40;;;-3.00;99.90;;;;;;4955017;28;21081;-84
2024/01/22 04:03:24;;;;;;;2.60;1.40;;;-2.80;99.90;;;;;;4970284;28;20110;-83
2024/01/22 04:05:50;;;;;;;2.60;1.50;;;-2.50;99.90;;;;;;4971049;28;20114;-84
2024/01/22 04:08:15;;;;;;;4.30;1.57;;;-2.30;99.90;;;;;;4971245;28;20027;-84
2024/01/22 04:10:41;;;;;;;2.50;1.40;;;-2.00;99.90;;;;;;4970120;28;20142;-83
2024/01/22 04:13:06;;;;;;;2.93;1.50;;;-1.80;99.90;;;;;;4970802;28;20023;-83
2024/01/22 04:15:33;;;;;;;3.00;2.17;;;-1.60;99.90;;;;;;4971923;28;20031;-84
2024/01/22 04:17:58;;;;;;;2.77;1.30;;;-1.30;99.90;;;;;;4954457;28;20109;-83
2024/01/22 04:20:24;;;;;;;2.07;1.50;;;-1.20;99.90;;;;;;4970290;28;20098;-83
2024/01/22 04:22:51;;;;;;;2.30;1.20;;;-1.00;99.90;;;;;;4971899;28;20230;-84
2024/01/22 04:25:16;;;;;;;2.83;1.43;;;-0.80;99.90;;;;;;4969638;28;21322;-83
2024/01/22 04:27:42;;;;;;;5.67;1.80;;;-0.70;99.90;;;;;;4969655;28;20034;-84
2024/01/22 04:30:08;;;;;;;3.27;1.43;;;-0.60;99.90;;;;;;4970094;28;20041;-84
2024/01/22 04:32:34;;;;;;;1.77;1.23;;;-0.50;99.90;;;;;;4971223;28;20026;-83
2024/01/22 04:34:59;;;;;;;2.13;1.50;;;-0.50;99.90;;;;;;4970041;28;20058;-83
2024/01/22 04:37:25;;;;;;;1.97;1.53;;;-0.40;99.90;;;;;;4970288;28;20039;-83
2024/01/22 04:39:50;;;;;;;3.53;1.60;;;-0.30;99.90;;;;;;4970587;28;20026;-83
2024/01/22 04:42:20;;;;;;;2.73;1.40;;;-0.10;99.90;;;;;;4971084;28;20118;-83
2024/01/22 04:44:45;;;;;;;1.70;1.40;;;0.00;99.90;;;;;;4953116;28;20446;-83
2024/01/22 04:47:11;;;;;;;2.90;1.40;;;0.20;99.90;;;;;;4952656;28;20027;-83
2024/01/22 04:49:36;;;;;;;2.47;1.70;;;0.30;99.90;;;;;;4969123;28;20049;-83
2024/01/22 04:52:02;;;;;;;1.53;1.27;;;0.50;99.90;;;;;;4968983;28;20478;-84
2024/01/22 04:54:28;;;;;;;2.53;1.57;;;0.60;99.90;;;;;;4970297;28;21028;-83
2024/01/22 04:56:54;;;;;;;1.70;1.23;;;0.70;99.90;;;;;;4969024;28;20402;-83
2024/01/22 04:59:20;;;;;;;3.10;1.70;;;0.80;99.90;;;;;;4971271;28;20099;-83
2024/01/22 05:01:45;;;;;;;2.60;1.30;;;0.80;99.90;;;;;;4970383;28;20041;-83
2024/01/22 05:04:11;;;;;;;3.20;1.70;;;0.90;99.90;;;;;;4974321;28;20470;-83
2024/01/22 05:06:36;;;;;;;2.23;1.50;;;0.90;99.90;;;;;;4972126;28;20031;-83
2024/01/22 05:09:04;;;;;;;2.63;1.30;;;0.90;99.90;;;;;;4969413;28;20049;-83
2024/01/22 05:11:29;;;;;;;2.93;1.80;;;0.80;99.90;;;;;;4969981;28;20039;-82
2024/01/22 05:13:55;;;;;;;3.00;1.40;;;0.80;99.90;;;;;;4968342;28;20038;-85
2024/01/22 05:16:22;;;;;;;2.43;1.60;;;0.70;99.90;;;;;;4974586;28;20031;-83
2024/01/22 05:18:48;;;;;;;2.60;1.67;;;0.70;99.90;;;;;;4968412;28;20034;-85
2024/01/22 05:21:15;;;;;;;3.23;1.40;;;0.60;99.90;;;;;;4951495;28;20076;-84
2024/01/22 05:23:41;;;;;;;2.30;1.20;;;0.60;99.90;;;;;;4969878;28;20066;-85
2024/01/22 05:26:07;;;;;;;2.77;1.30;;;0.60;99.90;;;;;;4968619;28;20035;-85
2024/01/22 05:28:33;;;;;;;3.10;1.30;;;0.60;99.90;;;;;;4967350;28;20453;-85
2024/01/22 05:31:00;;;;;;;3.10;1.50;;;0.60;99.90;;;;;;4966484;28;20078;-86
2024/01/22 05:33:26;;;;;;;4.10;1.67;;;0.60;99.90;;;;;;4965541;28;20054;-85
2024/01/22 05:35:52;;;;;;;2.17;1.40;;;0.60;99.90;;;;;;4965974;28;20057;-84
2024/01/22 05:38:17;;;;;;;3.23;1.70;;;0.60;99.90;;;;;;4965449;28;20027;-85
2024/01/22 05:40:43;;;;;;;3.97;1.70;;;0.50;99.90;;;;;;4965669;28;20242;-85
2024/01/22 05:43:08;;;;;;;2.43;1.70;;;0.50;99.90;;;;;;4967502;28;20031;-85
2024/01/22 05:45:34;;;;;;;3.13;1.80;;;0.40;99.90;;;;;;4968081;28;20031;-85
2024/01/22 05:47:59;;;;;;;2.93;1.63;;;0.30;99.90;;;;;;4969218;28;20023;-85
2024/01/22 05:50:25;;;;;;;2.67;1.63;;;0.20;99.90;;;;;;4970951;28;20190;-78
2024/01/22 05:52:50;;;;;;;2.60;1.97;;;0.20;99.90;;;;;;4957169;28;20034;-77
2024/01/22 05:55:16;;;;;;;3.30;2.30;;;0.10;99.90;;;;;;4965418;28;20944;-86
2024/01/22 05:57:41;;;;;;;3.03;1.90;;;0.10;99.90;;;;;;4962885;28;20022;-86
2024/01/22 06:00:13;;;;;;;4.33;2.80;;;0.00;99.90;;;;;;4964326;28;20034;-86
2024/01/22 06:02:42;;;;;;;3.20;1.80;;;0.00;99.90;;;;;;4964023;28;20477;-85
2024/01/22 06:05:11;;;;;;;3.70;2.27;;;-0.10;99.90;;;;;;4963932;28;20058;-86
2024/01/22 06:07:37;;;;;;;2.40;1.23;;;-0.20;99.90;;;;;;4962547;28;20038;-86
2024/01/22 06:10:05;;;;;;;3.87;1.50;;;-0.30;99.90;;;;;;4962262;28;20039;-86
2024/01/22 06:12:32;;;;;;;4.23;2.17;;;-0.30;99.90;;;;;;4962260;28;20038;-86
2024/01/22 06:14:58;;;;;;;3.90;1.73;;;-0.30;99.90;;;;;;4962324;28;20038;-86
2024/01/22 06:17:24;;;;;;;3.43;1.80;;;-0.40;99.90;;;;;;4964732;28;20035;-86
2024/01/22 06:19:50;;;;;;;3.83;2.13;;;-0.40;99.90;;;;;;4965302;28;20565;-86
2024/01/22 06:22:17;;;;;;;1.90;1.30;;;-0.50;99.90;;;;;;4965836;28;20040;-85
2024/01/22 06:24:44;;;;;;;4.40;1.67;;;-0.50;99.90;;;;;;4964654;28;20054;-86
2024/01/22 06:27:09;;;;;;;3.87;2.30;;;-0.50;99.90;;;;;;4965601;28;20607;-86
2024/01/22 06:29:35;;;;;;;2.50;1.53;;;-0.50;99.90;;;;;;4961815;28;20045;-85
2024/01/22 06:32:01;;;;;;;3.40;1.67;;;-0.50;99.90;;;;;;4969254;28;20026;-85
2024/01/22 06:34:26;;;;;;;3.07;1.83;;;-0.50;99.90;;;;;;4968325;28;20122;-85
2024/01/22 06:36:52;;;;;;;3.93;2.90;;;-0.50;99.90;;;;;;4966318;28;20137;-86
2024/01/22 06:39:17;;;;;;;2.53;1.60;;;-0.40;99.90;;;;;;4966018;28;20059;-85
2024/01/22 06:41:43;;;;;;;3.00;1.30;;;-0.30;99.90;;;;;;4965427;28;20039;-85
2024/01/22 06:44:09;;;;;;;2.40;1.50;;;-0.30;99.90;;;;;;4964689;28;20030;-86
2024/01/22 06:46:34;;;;;;;1.80;1.20;;;-0.20;99.90;;;;;;4962045;28;20027;-87
2024/01/22 06:49:00;;;;;;;2.80;1.50;;;-0.20;99.90;;;;;;4959452;28;20093;-86
2024/01/22 06:51:25;;;;;;;2.97;1.70;;;-0.10;99.90;;;;;;4962084;28;20037;-86
2024/01/22 06:53:51;;;;;;;2.43;1.60;;;-0.10;99.90;;;;;;4963287;28;20029;-86
2024/01/22 06:56:16;;;;;;;2.23;1.40;;;0.00;99.90;;;;;;4963942;28;20104;-87
2024/01/22 06:58:42;;;;;;;2.50;1.40;;;0.00;99.90;;;;;;4963229;28;20097;-87
2024/01/22 07:01:07;;;;;;;5.07;2.40;;;0.00;99.90;;;;;;4962895;28;20168;-86
2024/01/22 07:03:35;;;;;;;3.37;1.77;;;0.00;99.90;;;;;;4963102;28;20034;-86
2024/01/22 07:06:01;;;;;;;4.97;1.70;;;0.10;99.90;;;;;;4965928;28;20039;-88
2024/01/22 07:08:26;;;;;;;2.90;1.50;;;0.10;99.90;;;;;;4961967;28;20038;-87
2024/01/22 07:10:52;;;;;;;3.27;1.70;;;0.20;99.90;;;;;;4960658;28;20035;-87
2024/01/22 07:13:17;;;;;;;3.93;1.60;;;0.20;99.90;;;;;;4961978;28;20027;-86
2024/01/22 07:15:43;;;;;;;2.33;1.30;;;0.20;99.90;;;;;;4961446;28;20093;-87
2024/01/22 07:18:08;;;;;;;3.30;1.20;;;0.20;99.90;;;;;;4963140;28;20074;-88
2024/01/22 07:20:34;;;;;;;1.93;1.20;;;0.20;99.90;;;;;;4963307;28;20035;-87
2024/01/22 07:23:00;;;;;;;3.60;1.77;;;0.30;99.90;;;;;;4961031;28;20161;-87
2024/01/22 07:25:26;;;;;;;1.87;1.30;;;0.30;99.90;;;;;;4961781;28;20042;-86
2024/01/22 07:27:51;;;;;;;3.13;1.70;;;0.30;99.90;;;;;;4945737;28;21475;-87
2024/01/22 07:30:17;;;;;;;2.50;1.70;;;0.30;99.90;;;;;;4962822;28;20026;-87
2024/01/22 07:32:44;;;;;;;3.10;1.80;;;0.40;99.90;;;;;;4962090;28;20174;-88
2024/01/22 07:35:11;;;;;;;4.73;2.10;;;0.40;99.90;;;;;;4961605;28;20493;-86
2024/01/22 07:37:37;;;;;;;3.00;1.83;;;0.50;99.90;;;;;;4962449;28;20027;-87
2024/01/22 07:40:04;;;;;;;3.17;1.80;;;0.50;99.90;;;;;;4963374;28;20038;-87
2024/01/22 07:42:34;;;;;;;4.20;2.20;;;0.50;99.90;;;;;;4949054;28;21098;-87
2024/01/22 07:45:01;;;;;;;6.60;2.47;;;0.40;99.90;;;;;;4961488;28;20509;-87
2024/01/22 07:47:27;;;;;;;6.57;2.97;;;0.40;99.90;;;;;;4961206;28;20029;-87
2024/01/22 07:49:53;;;;;;;6.17;3.13;;;0.40;99.90;;;;;;4960250;28;21402;-88
2024/01/22 07:52:19;;;;;;;8.77;3.27;;;0.40;99.90;;;;;;4962039;28;20034;-87
2024/01/22 07:54:44;;;;;;;7.17;3.33;;;0.40;99.90;;;;;;4961634;28;20077;-87
2024/01/22 07:57:10;;;;;;;8.67;3.33;;;0.40;99.90;;;;;;4962907;28;20042;-87
2024/01/22 07:59:37;;;;;;;11.60;2.60;;;0.40;99.90;;;;;;4961948;28;20173;-87
2024/01/22 08:02:04;;;;;;;3.87;1.90;;;0.40;99.90;;;;;;4960737;28;20070;-88
2024/01/22 08:04:30;;;;;;;9.80;2.37;;;0.40;99.90;;;;;;4963131;28;21032;-86
2024/01/22 08:06:55;;;;;;;6.23;2.27;;;0.40;99.90;;;;;;4962035;28;20046;-88
2024/01/22 08:09:21;;;;;;;5.43;2.30;;;0.40;99.90;;;;;;4960194;28;21409;-88
2024/01/22 08:11:47;;;;;;;4.27;2.20;;;0.50;99.90;;;;;;4960122;28;20031;-88
2024/01/22 08:14:13;;;;;;;3.23;1.90;;;0.50;99.90;;;;;;4959698;28;20078;-87
2024/01/22 08:16:39;;;;;;;4.97;2.60;;;0.60;99.90;;;;;;4944978;28;20138;-87
2024/01/22 08:19:04;;;;;;;4.23;1.90;;;0.70;99.90;;;;;;4962491;28;20093;-87
2024/01/22 08:21:30;;;;;;;4.73;1.93;;;0.70;99.90;;;;;;4963915;28;20670;-88
2024/01/22 08:23:55;;;;;;;13.37;2.00;;;0.80;99.90;;;;;;4965759;28;20031;-88
2024/01/22 08:26:21;;;;;;;4.30;1.80;;;0.80;99.90;;;;;;4960922;28;20078;-88
2024/01/22 08:28:46;;;;;;;2.63;1.40;;;0.90;99.90;;;;;;4959631;28;20065;-88
2024/01/22 08:31:12;;;;;;;5.10;1.80;;;0.90;99.90;;;;;;4961472;28;20035;-88
2024/01/22 08:33:37;;;;;;;2.27;1.37;;;1.00;99.90;;;;;;4960996;28;20118;-87
2024/01/22 08:36:03;;;;;;;2.27;1.37;;;1.10;99.90;;;;;;4961559;28;20034;-87
2024/01/22 08:38:29;;;;;;;6.00;1.30;;;1.20;99.90;;;;;;4960501;28;20039;-87
2024/01/22 08:40:54;;;;;;;2.37;1.40;;;1.40;99.90;;;;;;4960046;28;20482;-88
2024/01/22 08:43:20;;;;;;;3.07;1.47;;;1.70;99.90;;;;;;4961643;28;21335;-86
2024/01/22 08:45:46;;;;;;;5.10;1.70;;;1.90;99.90;;;;;;4962213;28;20063;-88
2024/01/22 08:48:12;;;;;;;2.00;1.13;;;2.10;99.90;;;;;;4962438;28;20065;-87
2024/01/22 08:50:37;;;;;;;3.27;1.00;;;2.30;99.90;;;;;;4953604;28;20031;-87
2024/01/22 08:53:03;;;;;;;5.60;1.17;;;2.50;99.90;;;;;;4938539;28;20035;-88
2024/01/22 08:55:29;;;;;;;2.60;1.13;;;2.60;99.90;;;;;;4936187;28;20041;-88
2024/01/22 08:57:55;;;;;;;8.07;1.80;;;2.80;99.90;;;;;;4945951;28;20130;-88
2024/01/22 09:00:21;;;;;;;3.90;1.20;;;2.90;99.90;;;;;;4962554;28;20031;-87
2024/01/22 09:02:47;;;;;;;4.20;1.30;;;3.00;99.90;;;;;;4944602;28;20039;-87
2024/01/22 09:05:13;;;;;;;2.70;1.43;;;3.20;99.90;;;;;;4960638;28;20023;-87
2024/01/22 09:07:39;;;;;;;7.77;1.27;;;3.30;99.90;;;;;;4961989;28;20022;-88
2024/01/22 09:10:06;;;;;;;5.07;1.20;;;3.40;99.90;;;;;;4963174;28;20466;-87
2024/01/22 09:12:33;;;;;;;5.87;1.60;;;3.50;99.90;;;;;;4961869;28;20118;-87
2024/01/22 09:14:59;;;;;;;2.93;1.30;;;3.60;99.90;;;;;;4961109;28;20047;-87
2024/01/22 09:17:25;;;;;;;2.00;1.23;;;3.70;99.90;;;;;;4961072;28;20045;-86
2024/01/22 09:19:51;;;;;;;2.20;1.20;;;3.80;99.90;;;;;;4962319;28;20030;-87
2024/01/22 09:22:16;;;;;;;3.80;1.20;;;3.90;99.90;;;;;;4963322;28;20049;-86
2024/01/22 09:24:42;;;;;;;4.43;1.40;;;3.90;99.90;;;;;;4944690;28;20054;-87
2024/01/22 09:27:07;;;;;;;2.77;1.30;;;4.00;99.90;;;;;;4962071;28;20410;-87
2024/01/22 09:29:33;;;;;;;5.63;1.63;;;4.00;99.90;;;;;;4961021;28;20038;-87
2024/01/22 09:31:58;;;;;;;5.23;2.10;;;4.10;99.90;;;;;;4961962;28;20988;-87
2024/01/22 09:34:24;;;;;;;4.17;2.10;;;4.10;99.90;;;;;;4960804;28;20030;-87
2024/01/22 09:36:50;;;;;;;7.20;3.70;;;4.20;99.90;;;;;;4961155;28;20038;-87
2024/01/22 09:39:15;;;;;;;8.30;3.33;;;4.40;99.90;;;;;;4959688;28;20045;-87
2024/01/22 09:41:41;;;;;;;8.73;2.73;;;4.50;99.90;;;;;;4960494;28;20027;-88
2024/01/22 09:44:07;;;;;;;8.57;4.30;;;4.60;99.90;;;;;;4963318;28;20034;-88
2024/01/22 09:46:35;;;;;;;7.13;1.80;;;4.70;99.90;;;;;;4942579;28;20033;-89
2024/01/22 09:49:00;;;;;;;2.87;1.27;;;4.80;99.90;;;;;;4935503;28;20157;-87
2024/01/22 09:51:28;;;;;;;2.10;1.20;;;4.90;99.90;;;;;;4952930;28;20121;-87
2024/01/22 09:54:01;;;;;;;5.67;1.27;;;5.10;99.90;;;;;;4963693;28;20069;-87
2024/01/22 09:56:28;;;;;;;1.93;1.20;;;5.20;99.90;;;;;;4963956;28;20054;-87
2024/01/22 09:58:59;;;;;;;5.53;1.77;;;5.30;99.90;;;;;;4963844;28;20552;-87
2024/01/22 10:01:25;;;;;;;4.90;1.50;;;5.40;99.90;;;;;;4964604;28;20038;-88
2024/01/22 10:03:52;;;;;;;3.87;1.63;;;5.50;99.90;;;;;;4966064;28;21497;-86
2024/01/22 10:06:18;;;;;;;3.37;1.30;;;5.60;99.90;;;;;;4966403;28;20031;-86
2024/01/22 10:08:44;;;;;;;2.57;1.50;;;5.60;99.90;;;;;;4964645;28;20755;-87
2024/01/22 10:11:10;;;;;;;3.60;2.03;;;5.60;99.90;;;;;;4947948;28;20092;-87
2024/01/22 10:13:50;;;;;;;4.43;2.30;;;5.60;99.90;;;;;;4943336;28;20041;-87
2024/01/22 10:16:16;;;;;;;4.77;2.20;;;5.60;99.90;;;;;;4936743;28;20065;-86
2024/01/22 10:18:56;;;;;;;6.13;2.63;;;5.60;99.90;;;;;;4935963;28;20117;-87
2024/01/22 10:21:21;;;;;;;2.10;1.20;;;5.60;99.90;;;;;;4936729;28;20123;-86
2024/01/22 10:23:57;;;;;;;4.83;1.80;;;5.60;99.90;;;;;;4944237;28;20027;-87
2024/01/22 10:26:22;;;;;;;;;;;5.60;99.90;;;;;;4963266;28;20119;-86
2024/01/22 10:28:48;;;;;;;1.97;1.30;;;5.60;99.90;;;;;;4948289;28;19994;-86
2024/01/22 10:31:14;;;;;;;3.07;1.37;;;5.60;99.90;;;;;;4965073;28;20026;-86
2024/01/22 10:33:39;;;;;;;3.60;1.20;;;5.60;99.90;;;;;;4966522;28;20023;-86
2024/01/22 10:36:31;;;;;;;7.33;1.30;;;5.60;99.90;;;;;;4958980;28;20525;-86
2024/01/22 10:39:04;;;;;;;4.00;1.20;;;5.50;99.90;;;;;;4961733;28;20041;-85
2024/01/22 10:41:29;;;;;;;13.03;1.43;;;5.50;99.90;;;;;;4965787;28;20031;-86
2024/01/22 10:43:57;;;;;;;3.50;1.40;;;5.50;99.90;;;;;;4965116;28;20019;-86
2024/01/22 10:46:23;;;;;;;3.63;1.30;;;5.50;99.90;;;;;;4965126;28;20027;-86
2024/01/22 10:48:51;;;;;;;4.03;1.40;;;5.50;99.90;;;;;;4965221;28;20058;-86
2024/01/22 10:51:18;;;;;;;5.00;1.37;;;5.40;99.90;;;;;;4961329;28;20096;-86
2024/01/22 10:53:44;;;;;;;2.67;1.20;;;5.50;99.90;;;;;;4964200;28;20026;-86
2024/01/22 10:56:28;;;;;;;4.00;1.27;;;5.40;99.90;;;;;;4965522;28;20056;-87
2024/01/22 10:58:56;;;;;;;2.97;1.53;;;5.40;99.90;;;;;;4965300;28;20085;-86
2024/01/22 11:01:23;;;;;;;4.17;1.67;;;5.40;99.90;;;;;;4965878;28;20554;-86
2024/01/22 11:03:51;;;;;;;6.00;1.70;;;5.40;99.90;;;;;;4966361;28;20034;-86
2024/01/22 11:06:20;;;;;;;7.17;2.00;;;5.30;99.90;;;;;;4966520;28;20026;-86
2024/01/22 11:08:50;;;;;;;3.60;1.40;;;5.30;99.90;;;;;;4964779;28;20035;-86
2024/01/22 11:11:21;;;;;;;3.37;1.60;;;5.30;99.90;;;;;;4964226;28;20033;-87
2024/01/22 11:13:51;;;;;;;2.57;1.20;;;5.40;99.90;;;;;;4965444;28;20035;-86
2024/01/22 11:16:18;;;;;;;5.40;1.40;;;5.40;99.90;;;;;;4965767;28;20025;-86
2024/01/22 11:18:54;;;;;;;5.10;1.50;;;5.40;99.90;;;;;;4963602;28;20035;-87
2024/01/22 11:21:20;;;;;;;3.77;1.50;;;5.40;99.90;;;;;;4962963;28;20086;-87
2024/01/22 11:24:09;;;;;;;5.37;1.50;;;5.50;99.90;;;;;;4964277;28;20031;-86
2024/01/22 11:26:34;;;;;;;4.93;1.10;;;5.60;99.90;;;;;;4950544;28;20046;-85
2024/01/22 11:29:14;;;;;;;3.40;1.50;;;5.60;99.90;;;;;;4966124;28;20078;-86
2024/01/22 11:31:40;;;;;;;2.90;1.07;;;5.70;99.90;;;;;;4966468;28;20034;-86
2024/01/22 11:34:05;;;;;;;9.03;1.97;;;5.80;99.90;;;;;;4965650;28;20077;-87
2024/01/22 11:36:55;;;;;;;3.23;1.10;;;5.90;99.90;;;;;;4959331;28;20026;-87
2024/01/22 11:39:39;;;;;;;5.10;1.10;;;6.10;99.90;;;;;;4968070;28;20101;-86
2024/01/22 11:42:17;;;;;;;4.27;1.00;;;6.20;99.90;;;;;;4966437;28;20111;-87
2024/01/22 11:44:48;;;;;;;2.43;1.10;;;6.30;99.90;;;;;;4965933;28;20045;-87
2024/01/22 11:47:15;;;;;;;2.63;0.97;;;6.40;99.90;;;;;;4964383;28;20082;-86
2024/01/22 11:49:41;;;;;;;1.70;0.90;;;6.50;99.90;;;;;;4964689;28;20097;-87
2024/01/22 11:52:14;;;;;;;3.03;0.97;;;6.60;99.90;;;;;;4964461;28;20030;-86
2024/01/22 11:54:53;;;;;;;4.53;1.30;;;6.70;99.90;;;;;;4964100;28;20054;-87
2024/01/22 11:57:18;;;;;;;3.13;1.00;;;6.80;99.90;;;;;;4947555;28;20030;-87
2024/01/22 12:00:04;;;;;;;4.03;1.40;;;6.90;99.90;;;;;;4960187;28;20769;-86
2024/01/22 12:02:29;;;;;;;4.68;1.33;;;7.00;99.90;;;;;;4962370;28;20037;-86
2024/01/22 12:04:59;;;;;;;3.97;1.20;;;7.10;99.90;;;;;;4961391;28;20445;-87
2024/01/22 12:07:45;;;;;;;12.23;1.33;;;7.10;99.90;;;;;;4962477;28;20024;-87
2024/01/22 12:10:25;;;;;;;4.68;1.20;;;7.20;99.90;;;;;;4964394;28;20043;-86
2024/01/22 12:13:08;;;;;;;5.80;1.40;;;7.30;99.90;;;;;;4964180;28;20169;-85
2024/01/22 12:15:33;;;;;;;3.13;1.20;;;7.30;99.90;;;;;;4967789;28;20107;-86
2024/01/22 12:18:00;;;;;;;5.17;1.30;;;7.30;99.90;;;;;;4965206;28;20022;-86
2024/01/22 12:20:26;;;;;;;2.67;1.10;;;7.40;99.90;;;;;;4966581;28;20038;-87
2024/01/22 12:23:11;;;;;;;4.83;1.07;;;7.50;99.90;;;;;;4962845;28;20097;-86
2024/01/22 12:25:42;;;;;;;3.03;1.30;;;7.50;99.90;;;;;;4962678;28;20034;-87
2024/01/22 12:28:10;;;;;;;3.27;1.20;;;7.60;99.90;;;;;;4955784;28;20023;-87
2024/01/22 12:30:36;;;;;;;4.27;1.30;;;7.60;99.90;;;;;;4957717;28;20113;-87
2024/01/22 12:33:01;;;;;;;4.50;1.60;;;7.60;99.90;;;;;;4961473;28;20070;-86
2024/01/22 12:35:27;;;;;;;2.20;1.03;;;7.70;99.90;;;;;;4960349;28;20035;-86
2024/01/22 12:37:53;;;;;;;2.30;0.87;;;7.70;99.90;;;;;;4961448;28;20030;-87
2024/01/22 12:40:19;;;;;;;1.97;0.80;;;7.80;99.90;;;;;;4962419;28;20031;-86
2024/01/22 12:42:47;;;;;;;5.33;0.83;;;7.90;99.90;;;;;;4963362;28;20122;-85
2024/01/22 12:45:23;;;;;;;1.30;0.80;;;7.90;99.90;;;;;;4963383;28;20102;-86
2024/01/22 12:47:48;;;;;;;1.60;0.90;;;7.90;99.90;;;;;;4963171;28;20038;-85
2024/01/22 12:50:17;;;;;;;1.23;0.80;;;7.90;99.90;;;;;;4962356;28;20034;-85